Time;durP1;ratioP1;P1;durP2;ratioP2;P2;SDS_P1;SDS_P2;PMS_P1;PMS_P2;Temp;Humidity;BMP_temperature;BMP_pressure;BME280_temperature;BME280_humidity;BME280_pressure;Samples;Min_cycle;Max_cycle;Signal;HPM_P1;HPM_P2
2023/12/11 00:01:55;;;;;;;3.83;3.17;;;;;;;;;;5154728;27;20461;-53
2023/12/11 00:04:24;;;;;;;3.30;2.47;;;;;;;;;;5150560;27;20546;-54
2023/12/11 00:06:51;;;;;;;4.70;3.60;;;;;;;;;;5147246;27;20565;-54
2023/12/11 00:09:18;;;;;;;3.67;3.27;;;;;;;;;;5153969;27;20463;-54
2023/12/11 00:14:20;;;;;;;3.30;2.60;;;;;;;;;;5107891;27;20599;-54
2023/12/11 00:16:47;;;;;;;4.43;2.43;;;;;;;;;;5108699;28;20501;-54
2023/12/11 00:19:14;;;;;;;3.93;2.47;;;;;;;;;;5108043;28;20448;-55
2023/12/11 00:21:42;;;;;;;4.30;2.10;;;;;;;;;;5108497;28;20449;-56
2023/12/11 00:24:09;;;;;;;2.53;1.63;;;;;;;;;;5107803;28;20484;-55
2023/12/11 00:26:37;;;;;;;2.63;1.23;;;;;;;;;;5108317;28;20446;-54
2023/12/11 00:29:04;;;;;;;2.43;1.30;;;;;;;;;;5107420;28;20452;-54
2023/12/11 00:34:07;;;;;;;3.83;3.07;;;;;;;;;;5107721;27;20598;-54
2023/12/11 00:36:34;;;;;;;4.40;3.47;;;;;;;;;;5100628;28;20446;-56
2023/12/11 00:39:03;;;;;;;3.80;2.77;;;;;;;;;;5107856;28;20448;-51
2023/12/11 00:41:30;;;;;;;3.27;2.53;;;;;;;;;;5108513;28;20451;-55
2023/12/11 00:43:58;;;;;;;3.10;2.30;;;;;;;;;;5105772;28;20492;-54
2023/12/11 00:46:25;;;;;;;5.00;2.47;;;;;;;;;;5108191;28;20441;-54
2023/12/11 00:48:53;;;;;;;3.87;2.23;;;;;;;;;;5108062;28;20827;-55
2023/12/11 00:51:22;;;;;;;2.57;1.80;;;;;;;;;;5108313;28;20448;-54
2023/12/11 00:53:50;;;;;;;2.93;2.13;;;;;;;;;;5103587;28;20507;-56
2023/12/11 00:56:17;;;;;;;4.20;2.83;;;;;;;;;;5106509;28;20446;-54
2023/12/11 00:58:45;;;;;;;5.00;2.87;;;;;;;;;;5106961;28;20460;-56
2023/12/11 01:01:12;;;;;;;5.13;2.90;;;;;;;;;;5101753;28;20449;-54
2023/12/11 01:03:39;;;;;;;3.40;2.50;;;;;;;;;;5107955;28;20507;-55
2023/12/11 01:06:07;;;;;;;3.40;2.23;;;;;;;;;;5106520;28;20445;-54
2023/12/11 01:08:38;;;;;;;5.10;3.43;;;;;;;;;;5107564;28;20912;-55
2023/12/11 01:11:05;;;;;;;3.80;2.83;;;;;;;;;;5107606;28;20448;-55
2023/12/11 01:13:33;;;;;;;3.80;2.90;;;;;;;;;;5107527;28;20441;-54
2023/12/11 01:16:00;;;;;;;3.23;2.23;;;;;;;;;;5099738;28;20453;-55
2023/12/11 01:18:28;;;;;;;5.23;3.70;;;;;;;;;;5091838;28;20711;-52
2023/12/11 01:20:55;;;;;;;3.30;2.67;;;;;;;;;;5107564;28;20448;-54
2023/12/11 01:23:23;;;;;;;4.73;2.90;;;;;;;;;;5107489;28;20592;-54
2023/12/11 01:25:51;;;;;;;4.03;2.73;;;;;;;;;;5107000;28;20460;-56
2023/12/11 01:28:18;;;;;;;3.80;3.00;;;;;;;;;;5106664;28;20534;-54
2023/12/11 01:30:45;;;;;;;4.17;2.90;;;;;;;;;;5106483;28;21040;-55
2023/12/11 01:33:13;;;;;;;3.33;2.20;;;;;;;;;;5105603;28;20447;-55
2023/12/11 01:35:40;;;;;;;2.80;1.97;;;;;;;;;;5103058;28;20845;-55
2023/12/11 01:38:08;;;;;;;3.47;2.43;;;;;;;;;;5106976;28;20812;-55
2023/12/11 01:40:35;;;;;;;7.50;6.13;;;;;;;;;;5103173;28;20820;-55
2023/12/11 01:43:13;;;;;;;10.80;6.67;;;;;;;;;;5102509;28;20505;-54
2023/12/11 01:45:41;;;;;;;4.13;3.73;;;;;;;;;;5089183;28;20662;-54
2023/12/11 01:48:10;;;;;;;5.30;4.30;;;;;;;;;;5092119;28;20987;-54
2023/12/11 01:50:38;;;;;;;5.10;4.07;;;;;;;;;;5093598;28;20476;-56
2023/12/11 01:53:05;;;;;;;5.93;4.97;;;;;;;;;;5093470;28;20947;-54
2023/12/11 01:55:33;;;;;;;5.43;4.40;;;;;;;;;;5067881;22;21060;-55
2023/12/11 01:58:02;;;;;;;5.63;4.23;;;;;;;;;;5032235;28;20458;-56
2023/12/11 02:00:31;;;;;;;5.70;4.20;;;;;;;;;;5032618;28;20510;-55
2023/12/11 02:02:58;;;;;;;4.43;3.53;;;;;;;;;;5032799;28;20578;-55
2023/12/11 02:05:26;;;;;;;3.67;2.67;;;;;;;;;;5017364;28;20479;-55
2023/12/11 02:07:54;;;;;;;3.93;2.90;;;;;;;;;;5012930;28;20454;-55
2023/12/11 02:10:21;;;;;;;3.57;2.50;;;;;;;;;;5012400;28;20450;-55
2023/12/11 02:12:49;;;;;;;2.57;2.03;;;;;;;;;;5013048;28;20453;-55
2023/12/11 02:15:31;;;;;;;3.07;2.50;;;;;;;;;;5012202;28;20504;-55
2023/12/11 02:18:00;;;;;;;2.87;2.57;;;;;;;;;;5012161;28;20448;-55
2023/12/11 02:20:27;;;;;;;3.40;3.10;;;;;;;;;;5012363;28;20817;-55
2023/12/11 02:22:55;;;;;;;7.07;5.07;;;;;;;;;;5012638;28;21041;-55
2023/12/11 02:25:23;;;;;;;4.90;4.27;;;;;;;;;;5012087;28;20468;-55
2023/12/11 02:27:51;;;;;;;7.47;4.00;;;;;;;;;;5012412;28;20814;-55
2023/12/11 02:30:19;;;;;;;3.20;2.90;;;;;;;;;;5011983;28;20695;-55
2023/12/11 02:32:46;;;;;;;3.50;2.50;;;;;;;;;;5012333;28;20444;-55
2023/12/11 02:35:13;;;;;;;2.43;1.13;;;;;;;;;;5012094;28;20478;-55
2023/12/11 02:37:41;;;;;;;2.33;1.30;;;;;;;;;;5012307;28;20454;-55
2023/12/11 02:40:09;;;;;;;3.90;2.90;;;;;;;;;;5011809;28;20456;-55
2023/12/11 02:42:36;;;;;;;3.50;2.77;;;;;;;;;;5012051;28;20453;-54
2023/12/11 02:45:06;;;;;;;2.90;1.73;;;;;;;;;;5012192;28;20473;-55
2023/12/11 02:47:33;;;;;;;3.10;2.70;;;;;;;;;;5010906;28;20456;-55
2023/12/11 02:50:00;;;;;;;2.63;2.00;;;;;;;;;;5011738;28;20455;-55
2023/12/11 02:52:28;;;;;;;2.70;2.23;;;;;;;;;;5012162;28;20448;-55
2023/12/11 02:54:56;;;;;;;2.73;1.97;;;;;;;;;;5010985;28;20472;-55
2023/12/11 02:57:23;;;;;;;3.87;1.70;;;;;;;;;;5010887;28;21020;-55
2023/12/11 02:59:50;;;;;;;2.07;1.20;;;;;;;;;;5011711;28;20481;-55
2023/12/11 03:02:19;;;;;;;2.53;1.10;;;;;;;;;;5011650;28;20445;-55
2023/12/11 03:04:47;;;;;;;1.97;1.30;;;;;;;;;;5011675;28;20493;-55
2023/12/11 03:07:15;;;;;;;3.00;2.27;;;;;;;;;;5011010;28;20460;-55
2023/12/11 03:09:42;;;;;;;4.07;2.50;;;;;;;;;;5011450;28;20454;-55
2023/12/11 03:12:09;;;;;;;3.87;2.43;;;;;;;;;;5011486;28;20453;-55
2023/12/11 03:14:37;;;;;;;6.00;3.03;;;;;;;;;;5011538;28;20466;-56
2023/12/11 03:17:04;;;;;;;4.50;2.70;;;;;;;;;;5011376;28;20453;-55
2023/12/11 03:19:34;;;;;;;3.70;2.90;;;;;;;;;;5011303;28;20445;-55
2023/12/11 03:22:02;;;;;;;3.73;2.23;;;;;;;;;;5011179;28;20457;-55
2023/12/11 03:24:29;;;;;;;2.83;2.13;;;;;;;;;;5010945;28;20490;-55
2023/12/11 03:26:56;;;;;;;2.83;1.83;;;;;;;;;;5011259;28;20464;-55
2023/12/11 03:29:24;;;;;;;2.77;2.43;;;;;;;;;;5010576;28;20457;-55
2023/12/11 03:31:51;;;;;;;3.40;2.47;;;;;;;;;;5011350;28;20460;-55
2023/12/11 03:34:18;;;;;;;2.80;2.20;;;;;;;;;;5010757;28;20481;-55
2023/12/11 03:36:47;;;;;;;3.00;1.93;;;;;;;;;;5011088;28;20456;-55
2023/12/11 03:39:15;;;;;;;2.67;2.10;;;;;;;;;;5010543;28;20446;-55
2023/12/11 03:41:42;;;;;;;2.70;1.57;;;;;;;;;;5011091;28;20449;-55
2023/12/11 03:44:10;;;;;;;4.80;2.60;;;;;;;;;;5011073;28;20512;-54
2023/12/11 03:46:37;;;;;;;3.43;2.60;;;;;;;;;;5011356;28;20449;-55
2023/12/11 03:49:04;;;;;;;3.90;3.00;;;;;;;;;;5015424;28;20455;-56
2023/12/11 03:51:32;;;;;;;6.70;6.10;;;;;;;;;;5010691;28;20449;-56
2023/12/11 03:54:01;;;;;;;4.10;3.70;;;;;;;;;;5010667;28;20446;-55
2023/12/11 03:56:29;;;;;;;4.13;3.70;;;;;;;;;;5011044;28;20449;-56
2023/12/11 03:58:56;;;;;;;4.30;3.90;;;;;;;;;;5010321;28;20461;-55
2023/12/11 04:01:23;;;;;;;4.80;3.33;;;;;;;;;;5010696;28;20971;-55
2023/12/11 04:03:51;;;;;;;3.77;3.20;;;;;;;;;;5006404;28;20889;-55
2023/12/11 04:06:18;;;;;;;7.77;3.30;;;;;;;;;;5010654;28;21022;-55
2023/12/11 04:08:45;;;;;;;3.30;3.00;;;;;;;;;;5008892;28;20814;-56
2023/12/11 04:11:14;;;;;;;3.83;2.93;;;;;;;;;;5003671;28;20485;-54
2023/12/11 04:13:42;;;;;;;3.07;2.40;;;;;;;;;;5010838;28;20442;-55
2023/12/11 04:16:10;;;;;;;2.90;2.43;;;;;;;;;;5009048;28;20467;-55
2023/12/11 04:18:37;;;;;;;3.10;2.60;;;;;;;;;;5010170;28;20933;-55
2023/12/11 04:21:05;;;;;;;3.73;2.13;;;;;;;;;;5010508;28;20442;-54
2023/12/11 04:23:33;;;;;;;3.13;2.30;;;;;;;;;;5010362;28;20478;-55
2023/12/11 04:26:01;;;;;;;2.73;2.10;;;;;;;;;;5010040;28;20467;-56
2023/12/11 04:28:29;;;;;;;2.73;1.50;;;;;;;;;;5002550;28;20438;-55
2023/12/11 04:30:57;;;;;;;2.97;2.23;;;;;;;;;;5010248;28;20444;-55
2023/12/11 04:33:24;;;;;;;5.60;3.80;;;;;;;;;;5010352;28;20438;-55
2023/12/11 04:35:52;;;;;;;7.03;5.00;;;;;;;;;;5004649;28;20476;-55
2023/12/11 04:38:19;;;;;;;4.50;3.20;;;;;;;;;;5009949;28;20449;-55
2023/12/11 04:40:46;;;;;;;3.80;2.73;;;;;;;;;;5010205;28;20477;-55
2023/12/11 04:43:14;;;;;;;4.00;3.10;;;;;;;;;;5010049;28;20447;-55
2023/12/11 04:45:42;;;;;;;3.80;2.37;;;;;;;;;;5010067;28;20472;-55
2023/12/11 04:48:10;;;;;;;2.70;2.20;;;;;;;;;;5009398;28;20468;-55
2023/12/11 04:50:37;;;;;;;4.40;2.60;;;;;;;;;;5010244;28;20458;-56
2023/12/11 04:53:04;;;;;;;4.50;3.50;;;;;;;;;;5010141;28;20450;-55
2023/12/11 04:55:33;;;;;;;3.70;2.27;;;;;;;;;;5009992;28;20473;-55
2023/12/11 04:58:00;;;;;;;3.17;1.87;;;;;;;;;;5009698;28;20486;-55
2023/12/11 05:00:27;;;;;;;3.83;1.70;;;;;;;;;;5010380;28;20446;-55
2023/12/11 05:02:56;;;;;;;4.83;1.30;;;;;;;;;;5009974;28;20457;-55
2023/12/11 05:05:24;;;;;;;2.73;1.60;;;;;;;;;;5009895;28;20999;-55
2023/12/11 05:07:51;;;;;;;2.80;1.77;;;;;;;;;;5010060;28;20485;-55
2023/12/11 05:10:18;;;;;;;2.37;1.20;;;;;;;;;;5009866;28;20859;-56
2023/12/11 05:12:46;;;;;;;1.90;1.00;;;;;;;;;;5009719;28;20937;-55
2023/12/11 05:15:13;;;;;;;2.47;1.50;;;;;;;;;;5009656;28;20979;-55
2023/12/11 05:17:40;;;;;;;2.70;1.40;;;;;;;;;;5009795;28;20945;-55
2023/12/11 05:20:10;;;;;;;2.60;1.20;;;;;;;;;;5012105;28;20770;-55
2023/12/11 05:22:37;;;;;;;4.90;3.60;;;;;;;;;;5013766;28;20447;-55
2023/12/11 05:25:05;;;;;;;7.40;5.00;;;;;;;;;;5013217;28;20617;-55
2023/12/11 05:27:33;;;;;;;7.07;4.70;;;;;;;;;;5013511;28;20934;-55
2023/12/11 05:30:00;;;;;;;5.17;4.77;;;;;;;;;;5013252;28;20466;-55
2023/12/11 05:32:27;;;;;;;4.73;3.40;;;;;;;;;;5005759;28;20448;-55
2023/12/11 05:34:55;;;;;;;3.43;2.83;;;;;;;;;;5013499;28;20669;-55
2023/12/11 05:37:23;;;;;;;3.40;2.53;;;;;;;;;;5011736;28;20446;-55
2023/12/11 05:39:51;;;;;;;3.30;2.00;;;;;;;;;;5012955;28;20456;-55
2023/12/11 05:42:18;;;;;;;2.53;1.80;;;;;;;;;;5012760;28;20457;-55
2023/12/11 05:44:46;;;;;;;1.80;1.23;;;;;;;;;;5013282;28;20497;-55
2023/12/11 05:47:13;;;;;;;2.20;1.07;;;;;;;;;;5012367;28;20453;-55
2023/12/11 05:49:40;;;;;;;4.50;3.37;;;;;;;;;;5009930;28;20457;-56
2023/12/11 05:52:08;;;;;;;6.53;3.30;;;;;;;;;;5012681;28;20449;-55
2023/12/11 05:54:36;;;;;;;6.33;5.43;;;;;;;;;;5013017;28;20482;-55
2023/12/11 05:57:04;;;;;;;4.80;3.20;;;;;;;;;;5012492;28;20631;-55
2023/12/11 05:59:31;;;;;;;4.63;3.80;;;;;;;;;;5011678;28;20445;-55
2023/12/11 06:01:59;;;;;;;5.57;4.13;;;;;;;;;;5012911;28;20441;-55
2023/12/11 06:04:26;;;;;;;3.83;2.30;;;;;;;;;;5012791;28;21025;-55
2023/12/11 06:06:53;;;;;;;2.80;1.53;;;;;;;;;;5012766;28;20454;-55
2023/12/11 06:09:21;;;;;;;5.50;4.50;;;;;;;;;;5012602;28;20454;-55
2023/12/11 06:11:49;;;;;;;6.03;5.40;;;;;;;;;;5012938;28;20490;-55
2023/12/11 06:14:17;;;;;;;4.03;2.40;;;;;;;;;;5011965;28;20983;-55
2023/12/11 06:16:44;;;;;;;6.80;4.90;;;;;;;;;;5012163;28;20473;-55
2023/12/11 06:19:12;;;;;;;7.17;6.00;;;;;;;;;;5011515;28;20457;-55
2023/12/11 06:21:40;;;;;;;2.80;2.50;;;;;;;;;;5011957;28;20445;-56
2023/12/11 06:24:08;;;;;;;2.53;1.90;;;;;;;;;;5011654;28;21004;-55
2023/12/11 06:26:36;;;;;;;4.20;3.80;;;;;;;;;;5007178;28;20477;-55
2023/12/11 06:29:05;;;;;;;7.90;7.10;;;;;;;;;;5011468;28;20445;-55
2023/12/11 06:31:32;;;;;;;9.13;8.30;;;;;;;;;;5012271;28;20442;-55
2023/12/11 06:34:00;;;;;;;9.10;5.53;;;;;;;;;;5010719;28;20458;-55
2023/12/11 06:36:28;;;;;;;3.87;2.80;;;;;;;;;;5012396;28;20449;-55
2023/12/11 06:38:55;;;;;;;2.67;2.03;;;;;;;;;;5011890;28;20459;-55
2023/12/11 06:41:23;;;;;;;4.37;3.47;;;;;;;;;;5011982;28;20446;-55
2023/12/11 06:43:50;;;;;;;5.53;4.17;;;;;;;;;;5012000;28;20449;-56
2023/12/11 06:46:19;;;;;;;5.33;4.63;;;;;;;;;;5011781;28;20449;-56
2023/12/11 06:48:47;;;;;;;3.97;3.17;;;;;;;;;;5007134;28;20464;-55
2023/12/11 06:51:16;;;;;;;4.90;4.13;;;;;;;;;;5011653;28;20461;-55
2023/12/11 06:53:44;;;;;;;5.97;4.23;;;;;;;;;;5011898;28;20532;-55
2023/12/11 06:56:18;;;;;;;4.83;3.60;;;;;;;;;;5011492;28;20455;-55
2023/12/11 06:58:46;;;;;;;4.00;3.60;;;;;;;;;;5011572;28;20446;-55
2023/12/11 07:01:13;;;;;;;6.03;5.43;;;;;;;;;;5009799;28;20450;-56
2023/12/11 07:03:42;;;;;;;6.83;6.17;;;;;;;;;;5008159;28;20469;-55
2023/12/11 07:06:10;;;;;;;9.40;6.00;;;;;;;;;;5003562;28;20508;-55
2023/12/11 07:08:38;;;;;;;6.90;6.20;;;;;;;;;;5011193;28;20447;-56
2023/12/11 07:11:06;;;;;;;10.03;6.57;;;;;;;;;;5011430;28;20488;-55
2023/12/11 07:13:33;;;;;;;8.00;6.00;;;;;;;;;;5011375;28;20461;-55
2023/12/11 07:16:00;;;;;;;9.40;5.50;;;;;;;;;;5011045;28;20473;-55
2023/12/11 07:18:28;;;;;;;6.53;5.83;;;;;;;;;;5010292;28;20446;-55
2023/12/11 07:20:57;;;;;;;10.70;8.03;;;;;;;;;;5011107;28;20450;-55
2023/12/11 07:23:24;;;;;;;6.80;6.10;;;;;;;;;;5010606;28;20443;-55
2023/12/11 07:25:51;;;;;;;6.87;4.83;;;;;;;;;;5010632;28;20497;-56
2023/12/11 07:28:19;;;;;;;6.07;4.50;;;;;;;;;;5009650;28;20456;-55
2023/12/11 07:30:46;;;;;;;58.93;38.17;;;;;;;;;;5010652;28;20445;-56
2023/12/11 07:33:13;;;;;;;17.97;14.10;;;;;;;;;;5010610;28;20446;-56
2023/12/11 07:35:41;;;;;;;10.13;9.13;;;;;;;;;;5010677;28;20465;-56
2023/12/11 07:38:09;;;;;;;8.40;6.90;;;;;;;;;;5010621;28;20453;-55
2023/12/11 07:40:37;;;;;;;6.13;5.53;;;;;;;;;;5010571;28;20449;-55
2023/12/11 07:43:07;;;;;;;6.00;5.40;;;;;;;;;;5010403;28;20473;-55
2023/12/11 07:45:35;;;;;;;7.40;5.80;;;;;;;;;;5010684;28;21000;-55
2023/12/11 07:48:03;;;;;;;6.47;4.33;;;;;;;;;;5010225;28;20457;-55
2023/12/11 07:50:30;;;;;;;6.97;4.30;;;;;;;;;;5010601;28;20442;-55
2023/12/11 07:52:57;;;;;;;6.00;4.50;;;;;;;;;;5010587;28;20449;-56
2023/12/11 07:55:26;;;;;;;7.13;6.13;;;;;;;;;;5036781;22;20500;-54
2023/12/11 07:57:54;;;;;;;9.20;8.20;;;;;;;;;;5030670;28;20455;-55
2023/12/11 08:00:21;;;;;;;9.47;8.40;;;;;;;;;;5029966;28;20481;-56
2023/12/11 08:02:49;;;;;;;9.47;8.47;;;;;;;;;;5030407;28;20748;-54
2023/12/11 08:05:17;;;;;;;10.57;8.80;;;;;;;;;;5020258;28;20496;-57
2023/12/11 08:07:44;;;;;;;7.83;7.03;;;;;;;;;;5010805;28;20461;-57
2023/12/11 08:10:12;;;;;;;6.23;5.43;;;;;;;;;;5010418;28;20503;-54
2023/12/11 08:12:40;;;;;;;4.37;3.97;;;;;;;;;;5010670;28;20807;-54
2023/12/11 08:15:08;;;;;;;7.43;5.83;;;;;;;;;;5010655;28;20538;-54
2023/12/11 08:17:35;;;;;;;9.37;7.60;;;;;;;;;;5010911;28;20453;-53
2023/12/11 08:20:05;;;;;;;6.10;5.23;;;;;;;;;;5010434;28;20458;-55
2023/12/11 08:22:32;;;;;;;5.30;4.40;;;;;;;;;;5010647;28;20545;-55
2023/12/11 08:25:00;;;;;;;7.93;6.23;;;;;;;;;;5010336;28;20489;-56
2023/12/11 08:27:27;;;;;;;10.57;9.50;;;;;;;;;;5009833;28;20475;-56
2023/12/11 08:29:56;;;;;;;4.43;3.20;;;;;;;;;;5010314;28;20885;-54
2023/12/11 08:32:23;;;;;;;4.70;3.87;;;;;;;;;;5010517;28;20500;-54
2023/12/11 08:34:50;;;;;;;6.27;5.67;;;;;;;;;;5010452;28;20468;-56
2023/12/11 08:37:18;;;;;;;8.67;6.97;;;;;;;;;;5010204;28;20449;-54
2023/12/11 08:39:45;;;;;;;9.47;7.60;;;;;;;;;;5010081;28;20445;-56
2023/12/11 08:42:13;;;;;;;9.10;5.80;;;;;;;;;;5010016;28;20449;-56
2023/12/11 08:44:40;;;;;;;5.10;4.60;;;;;;;;;;5010612;28;20490;-54
2023/12/11 08:47:09;;;;;;;5.50;4.17;;;;;;;;;;5010398;28;20454;-57
2023/12/11 08:49:36;;;;;;;9.50;6.00;;;;;;;;;;5008996;28;20817;-55
2023/12/11 08:52:04;;;;;;;6.57;4.57;;;;;;;;;;5008236;28;20940;-58
2023/12/11 08:54:31;;;;;;;5.70;4.50;;;;;;;;;;5004747;28;20484;-56
2023/12/11 08:56:59;;;;;;;8.90;5.70;;;;;;;;;;5014315;28;20434;-54
2023/12/11 08:59:26;;;;;;;4.93;3.80;;;;;;;;;;5005992;28;20443;-56
2023/12/11 09:01:54;;;;;;;3.77;3.17;;;;;;;;;;5014221;28;20452;-54
2023/12/11 09:04:22;;;;;;;3.80;2.93;;;;;;;;;;5014133;28;20481;-55
2023/12/11 09:06:50;;;;;;;14.80;8.80;;;;;;;;;;5014079;28;20951;-57
2023/12/11 09:09:17;;;;;;;24.50;15.30;;;;;;;;;;5012910;28;20936;-54
2023/12/11 09:11:45;;;;;;;17.07;11.60;;;;;;;;;;5013750;28;20461;-56
2023/12/11 09:14:12;;;;;;;14.30;8.70;;;;;;;;;;5012026;28;20477;-55
2023/12/11 09:16:39;;;;;;;16.90;10.50;;;;;;;;;;5006381;28;20462;-55
2023/12/11 09:19:08;;;;;;;9.03;8.17;;;;;;;;;;5010617;28;20446;-55
2023/12/11 09:21:37;;;;;;;8.87;7.97;;;;;;;;;;5012136;28;20943;-55
2023/12/11 09:24:04;;;;;;;7.60;6.83;;;;;;;;;;5007881;28;20450;-54
2023/12/11 09:26:32;;;;;;;9.50;6.40;;;;;;;;;;5009996;28;20489;-54
2023/12/11 09:28:59;;;;;;;8.20;6.50;;;;;;;;;;5003391;28;20451;-55
2023/12/11 09:31:26;;;;;;;6.90;6.07;;;;;;;;;;5005031;28;20473;-53
2023/12/11 09:33:54;;;;;;;6.70;6.10;;;;;;;;;;5004612;28;20449;-57
2023/12/11 09:36:21;;;;;;;10.90;8.20;;;;;;;;;;5003909;28;20527;-52
2023/12/11 09:38:50;;;;;;;11.50;8.80;;;;;;;;;;5006709;28;20449;-53
2023/12/11 09:41:17;;;;;;;9.80;8.87;;;;;;;;;;5011593;28;20449;-54
2023/12/11 09:43:45;;;;;;;11.30;10.07;;;;;;;;;;5009500;28;20505;-52
2023/12/11 09:46:16;;;;;;;15.20;9.23;;;;;;;;;;5008162;28;20496;-53
2023/12/11 09:48:43;;;;;;;14.03;11.70;;;;;;;;;;5004141;28;20530;-52
2023/12/11 09:51:11;;;;;;;13.20;10.97;;;;;;;;;;5009205;28;20454;-52
2023/12/11 09:53:38;;;;;;;9.43;8.43;;;;;;;;;;5009051;28;20512;-53
2023/12/11 09:56:08;;;;;;;10.00;7.67;;;;;;;;;;5007309;28;20477;-53
2023/12/11 09:58:36;;;;;;;7.50;6.63;;;;;;;;;;5017156;28;20805;-53
2023/12/11 10:01:04;;;;;;;10.53;9.53;;;;;;;;;;5019960;28;20799;-53
2023/12/11 10:03:31;;;;;;;12.63;9.70;;;;;;;;;;5012977;28;20449;-55
2023/12/11 10:06:00;;;;;;;14.20;11.30;;;;;;;;;;5013109;28;20480;-54
2023/12/11 10:08:27;;;;;;;11.50;10.33;;;;;;;;;;5017239;28;20919;-55
2023/12/11 10:11:09;;;;;;;23.30;13.60;;;;;;;;;;5007963;28;20458;-55
2023/12/11 10:13:38;;;;;;;14.03;10.90;;;;;;;;;;5012702;28;20906;-53
2023/12/11 10:16:06;;;;;;;9.60;8.53;;;;;;;;;;5018854;28;20482;-56
2023/12/11 10:18:33;;;;;;;10.63;8.43;;;;;;;;;;5016274;28;20450;-55
2023/12/11 10:21:01;;;;;;;11.00;7.53;;;;;;;;;;5012158;28;20442;-51
2023/12/11 10:23:28;;;;;;;20.33;9.60;;;;;;;;;;5010801;28;20454;-53
2023/12/11 10:26:05;;;;;;;13.17;8.60;;;;;;;;;;5008192;28;20830;-52
2023/12/11 10:28:32;;;;;;;15.60;8.83;;;;;;;;;;5003872;28;20997;-53
2023/12/11 10:31:04;;;;;;;15.53;11.00;;;;;;;;;;5011375;28;20971;-53
2023/12/11 10:33:32;;;;;;;26.63;13.70;;;;;;;;;;5008131;28;20504;-53
2023/12/11 10:36:11;;;;;;;19.03;12.50;;;;;;;;;;5011498;28;20465;-56
2023/12/11 10:38:38;;;;;;;19.30;13.20;;;;;;;;;;5008872;28;20500;-55
2023/12/11 10:41:06;;;;;;;14.83;10.40;;;;;;;;;;5012200;28;20495;-53
2023/12/11 10:43:40;;;;;;;17.17;10.87;;;;;;;;;;5004524;28;20455;-53
2023/12/11 10:48:44;;;;;;;34.80;13.73;;;;;;;;;;5104069;27;20576;-53
2023/12/11 10:51:11;;;;;;;11.00;7.23;;;;;;;;;;5095949;28;20525;-53
2023/12/11 10:53:39;;;;;;;7.43;5.60;;;;;;;;;;5095523;28;20532;-55
2023/12/11 10:56:08;;;;;;;10.63;6.57;;;;;;;;;;5093706;28;20574;-53
2023/12/11 10:58:35;;;;;;;13.40;5.67;;;;;;;;;;5094170;28;20483;-53
2023/12/11 11:01:03;;;;;;;5.93;4.90;;;;;;;;;;5096719;28;20550;-53
2023/12/11 11:06:06;;;;;;;15.63;13.63;;;;;;;;;;5086345;27;21086;-53
2023/12/11 11:08:51;;;;;;;17.47;15.63;;;;;;;;;;5066197;28;20868;-55
2023/12/11 11:11:24;;;;;;;17.23;13.13;;;;;;;;;;5064838;28;20439;-54
2023/12/11 11:14:02;;;;;;;18.40;11.17;;;;;;;;;;5065574;28;20433;-53
2023/12/11 11:16:52;;;;;;;20.00;11.60;;;;;;;;;;5063798;28;20482;-53
2023/12/11 11:19:19;;;;;;;11.40;8.97;;;;;;;;;;5064862;28;20927;-54
2023/12/11 11:21:59;;;;;;;11.20;8.50;;;;;;;;;;5067214;28;20547;-53
2023/12/11 11:24:27;;;;;;;16.50;10.43;;;;;;;;;;5065934;28;20485;-53
2023/12/11 11:26:54;;;;;;;18.37;11.43;;;;;;;;;;5066680;28;20448;-53
2023/12/11 11:32:12;;;;;;;10.60;8.00;;;;;;;;;;5095945;27;20644;-53
2023/12/11 11:34:46;;;;;;;19.97;15.10;;;;;;;;;;5078400;28;20468;-53
2023/12/11 11:37:17;;;;;;;22.27;19.30;;;;;;;;;;5072779;28;20451;-54
2023/12/11 11:39:56;;;;;;;13.87;9.50;;;;;;;;;;5068857;28;20440;-53
2023/12/11 11:42:24;;;;;;;11.30;9.50;;;;;;;;;;5072755;28;20538;-54
2023/12/11 11:44:55;;;;;;;7.53;6.37;;;;;;;;;;5069639;28;20834;-54
2023/12/11 11:47:24;;;;;;;8.87;7.90;;;;;;;;;;5071263;28;20985;-53
2023/12/11 11:49:50;;;;;;;23.23;20.97;;;;;;;;;;5070447;28;20501;-53
2023/12/11 11:52:22;;;;;;;11.57;10.57;;;;;;;;;;5085991;28;20443;-53
2023/12/11 11:54:49;;;;;;;11.07;9.90;;;;;;;;;;5082251;28;20456;-53
2023/12/11 11:57:16;;;;;;;14.53;13.00;;;;;;;;;;5081372;28;20441;-56
2023/12/11 11:59:44;;;;;;;15.20;13.60;;;;;;;;;;5087462;28;20494;-55
2023/12/11 12:02:11;;;;;;;16.77;15.40;;;;;;;;;;5087228;28;20483;-54
2023/12/11 12:04:40;;;;;;;8.60;7.77;;;;;;;;;;5082092;28;20513;-53
2023/12/11 12:07:07;;;;;;;5.70;4.90;;;;;;;;;;5086084;28;20447;-53
2023/12/11 12:09:35;;;;;;;11.55;8.05;;;;;;;;;;5065811;28;20438;-52
2023/12/11 12:12:04;;;;;;;10.93;9.33;;;;;;;;;;5066038;28;20194;-54
2023/12/11 12:14:31;;;;;;;15.30;11.60;;;;;;;;;;5066439;28;20487;-52
2023/12/11 12:16:59;;;;;;;12.37;11.07;;;;;;;;;;5065712;28;20487;-52
2023/12/11 12:19:35;;;;;;;12.23;10.97;;;;;;;;;;5079113;28;20496;-52
2023/12/11 12:22:04;;;;;;;13.90;11.90;;;;;;;;;;5085760;28;20493;-52
2023/12/11 12:24:32;;;;;;;13.20;11.33;;;;;;;;;;5086636;28;20587;-53
2023/12/11 12:27:02;;;;;;;12.43;11.20;;;;;;;;;;5084043;28;20444;-53
2023/12/11 12:29:31;;;;;;;11.97;10.17;;;;;;;;;;5086162;28;20447;-52
2023/12/11 12:31:59;;;;;;;13.17;9.70;;;;;;;;;;5086604;28;20575;-53
2023/12/11 12:34:27;;;;;;;11.80;10.43;;;;;;;;;;5086382;28;20491;-55
2023/12/11 12:36:55;;;;;;;13.20;11.53;;;;;;;;;;5084787;28;20495;-53
2023/12/11 12:39:24;;;;;;;13.50;11.77;;;;;;;;;;5086177;28;20457;-54
2023/12/11 12:41:51;;;;;;;14.90;13.30;;;;;;;;;;5082235;28;20482;-53
2023/12/11 12:44:19;;;;;;;17.93;16.13;;;;;;;;;;5069458;28;20440;-53
2023/12/11 12:46:47;;;;;;;13.90;11.67;;;;;;;;;;5072767;28;20440;-53
2023/12/11 12:49:15;;;;;;;13.50;12.10;;;;;;;;;;5072292;28;20534;-54
2023/12/11 12:51:46;;;;;;;15.37;13.77;;;;;;;;;;5065244;28;20942;-54
2023/12/11 12:54:14;;;;;;;16.00;14.03;;;;;;;;;;5072392;28;20448;-53
2023/12/11 12:56:43;;;;;;;13.63;10.00;;;;;;;;;;5070807;28;20447;-53
2023/12/11 12:59:11;;;;;;;9.43;8.53;;;;;;;;;;5055122;28;21012;-53
2023/12/11 13:01:39;;;;;;;9.53;8.53;;;;;;;;;;5052433;28;20559;-56
2023/12/11 13:04:08;;;;;;;8.53;7.30;;;;;;;;;;5060529;28;20954;-53
2023/12/11 13:06:35;;;;;;;15.17;13.50;;;;;;;;;;5050704;28;20463;-51
2023/12/11 13:09:03;;;;;;;24.10;21.67;;;;;;;;;;5048428;28;20632;-55
2023/12/11 13:11:40;;;;;;;12.90;11.70;;;;;;;;;;5053722;28;20472;-53
2023/12/11 13:14:11;;;;;;;8.90;7.03;;;;;;;;;;5057682;28;20526;-56
2023/12/11 13:16:39;;;;;;;7.70;6.37;;;;;;;;;;5063138;28;20455;-53
2023/12/11 13:19:06;;;;;;;8.60;6.43;;;;;;;;;;5069371;28;20444;-53
2023/12/11 13:21:33;;;;;;;19.30;17.30;;;;;;;;;;5071898;28;20493;-54
2023/12/11 13:24:01;;;;;;;75.90;27.60;;;;;;;;;;5063508;28;20804;-53
2023/12/11 13:26:29;;;;;;;21.70;19.60;;;;;;;;;;5056359;28;20489;-53
2023/12/11 13:28:56;;;;;;;27.87;21.60;;;;;;;;;;5055770;28;20495;-54
2023/12/11 13:31:25;;;;;;;23.80;19.77;;;;;;;;;;5045804;28;20462;-53
2023/12/11 13:33:53;;;;;;;16.40;14.70;;;;;;;;;;5057613;28;20436;-53
2023/12/11 13:36:20;;;;;;;11.73;10.40;;;;;;;;;;5062046;28;20485;-54
2023/12/11 13:38:48;;;;;;;19.07;17.07;;;;;;;;;;5061466;28;20948;-53
2023/12/11 13:41:16;;;;;;;19.47;17.60;;;;;;;;;;5058663;28;20482;-53
2023/12/11 13:43:43;;;;;;;22.27;18.10;;;;;;;;;;5062258;28;20443;-53
2023/12/11 13:46:10;;;;;;;15.17;13.60;;;;;;;;;;5063767;28;20966;-56
2023/12/11 13:48:39;;;;;;;11.33;10.13;;;;;;;;;;5064219;28;20466;-53
2023/12/11 13:51:08;;;;;;;11.70;10.63;;;;;;;;;;5062222;28;20436;-53
2023/12/11 13:53:37;;;;;;;10.23;9.27;;;;;;;;;;5064687;28;20447;-54
2023/12/11 13:56:05;;;;;;;12.63;8.23;;;;;;;;;;5062211;22;20599;-55
2023/12/11 13:58:32;;;;;;;15.87;12.80;;;;;;;;;;5029604;28;20983;-55
2023/12/11 14:01:00;;;;;;;7.23;6.03;;;;;;;;;;5030364;28;20494;-55
2023/12/11 14:03:27;;;;;;;6.50;5.27;;;;;;;;;;5025372;28;20445;-55
2023/12/11 14:05:56;;;;;;;20.23;18.23;;;;;;;;;;5017083;28;20548;-55
2023/12/11 14:08:23;;;;;;;19.13;17.13;;;;;;;;;;5007343;28;20535;-55
2023/12/11 14:10:51;;;;;;;16.43;13.77;;;;;;;;;;5011090;28;20625;-55
2023/12/11 14:13:18;;;;;;;6.90;3.80;;;;;;;;;;5010538;28;20929;-55
2023/12/11 14:15:46;;;;;;;4.10;2.50;;;;;;;;;;5008142;28;20466;-55
2023/12/11 14:18:13;;;;;;;15.00;12.10;;;;;;;;;;5007932;28;20858;-55
2023/12/11 14:20:42;;;;;;;19.07;17.23;;;;;;;;;;5007629;28;20438;-54
2023/12/11 14:23:12;;;;;;;19.93;18.03;;;;;;;;;;5008166;28;20447;-55
2023/12/11 14:25:39;;;;;;;21.87;18.43;;;;;;;;;;5008622;28;20466;-54
2023/12/11 14:28:06;;;;;;;22.50;19.90;;;;;;;;;;5009816;28;20532;-54
2023/12/11 14:30:35;;;;;;;17.63;15.60;;;;;;;;;;5009892;28;20930;-55
2023/12/11 14:33:02;;;;;;;11.80;10.37;;;;;;;;;;5009380;28;20446;-54
2023/12/11 14:35:29;;;;;;;9.90;8.50;;;;;;;;;;5010304;28;20511;-54
2023/12/11 14:37:57;;;;;;;9.63;8.67;;;;;;;;;;5009338;28;20485;-54
2023/12/11 14:40:25;;;;;;;9.90;8.40;;;;;;;;;;5008253;28;20461;-54
2023/12/11 14:42:53;;;;;;;10.77;9.73;;;;;;;;;;5010046;28;21008;-55
2023/12/11 14:45:20;;;;;;;12.67;10.47;;;;;;;;;;5009599;28;20520;-55
2023/12/11 14:47:47;;;;;;;14.93;13.23;;;;;;;;;;5010299;28;20439;-54
2023/12/11 14:50:15;;;;;;;9.70;8.70;;;;;;;;;;5010293;28;20450;-54
2023/12/11 14:52:42;;;;;;;5.93;5.33;;;;;;;;;;5010366;28;20450;-55
2023/12/11 14:55:10;;;;;;;10.40;8.50;;;;;;;;;;5009045;28;20477;-54